Time;durP1;ratioP1;P1;durP2;ratioP2;P2;SDS_P1;SDS_P2;PMS_P1;PMS_P2;Temp;Humidity;BMP_temperature;BMP_pressure;BME280_temperature;BME280_humidity;BME280_pressure;Samples;Min_cycle;Max_cycle;Signal;HPM_P1;HPM_P2
2023/01/13 00:00:37;;;;;;;1.90;0.63;;;;;;;8.43;72.85;95468.22;5072746;28;20437;-57
2023/01/13 00:03:05;;;;;;;0.90;0.60;;;;;;;8.22;72.44;95459.31;5072609;28;20814;-57
2023/01/13 00:05:34;;;;;;;6.30;0.87;;;;;;;8.30;72.02;95420.06;5072282;28;20555;-57
2023/01/13 00:08:03;;;;;;;0.33;0.30;;;;;;;8.47;71.91;95469.34;5072463;28;20455;-57
2023/01/13 00:10:33;;;;;;;0.37;0.27;;;;;;;8.11;72.58;95468.19;5072166;28;20432;-57
2023/01/13 00:13:03;;;;;;;0.40;0.40;;;;;;;8.20;72.77;95470.13;5072112;28;20941;-57
2023/01/13 00:15:32;;;;;;;0.40;0.30;;;;;;;8.18;73.05;95464.28;5072045;28;20835;-57
2023/01/13 00:18:00;;;;;;;0.80;0.70;;;;;;;8.33;72.94;95466.31;5072311;28;20421;-57
2023/01/13 00:20:29;;;;;;;2.87;0.67;;;;;;;8.77;70.96;95467.72;5072359;28;20429;-57
2023/01/13 00:22:58;;;;;;;0.40;0.30;;;;;;;8.79;70.83;95476.19;5072523;28;20455;-57
2023/01/13 00:25:27;;;;;;;0.30;0.30;;;;;;;8.75;69.79;95479.59;5071755;28;20482;-56
2023/01/13 00:27:56;;;;;;;0.40;0.20;;;;;;;8.91;72.17;95460.13;5072331;28;20422;-56
2023/01/13 00:30:25;;;;;;;0.40;0.20;;;;;;;8.82;71.42;95480.97;5071954;28;20864;-56
2023/01/13 00:32:53;;;;;;;0.60;0.40;;;;;;;9.01;70.75;95488.47;5072386;28;20433;-57
2023/01/13 00:35:21;;;;;;;0.40;0.40;;;;;;;9.01;70.52;95488.47;5071893;28;20447;-56
2023/01/13 00:37:50;;;;;;;0.30;0.30;;;;;;;9.17;70.08;95487.53;5072103;28;20434;-57
2023/01/13 00:40:18;;;;;;;0.43;0.40;;;;;;;9.15;69.83;95489.63;5072347;28;20489;-56
2023/01/13 00:45:36;;;;;;;0.60;0.60;;;;;;;9.12;69.65;95484.84;5053915;28;20488;-56
2023/01/13 00:48:04;;;;;;;0.30;0.20;;;;;;;8.76;69.87;95436.25;5071720;28;20932;-57
2023/01/13 00:50:33;;;;;;;0.30;0.20;;;;;;;9.14;71.00;95493.31;5071038;28;20472;-57
2023/01/13 00:53:01;;;;;;;0.40;0.40;;;;;;;8.95;70.42;95485.78;5071537;28;20433;-57
2023/01/13 00:55:31;;;;;;;0.30;0.20;;;;;;;8.68;71.24;95486.91;5071637;28;20436;-57
2023/01/13 00:58:02;;;;;;;0.40;0.40;;;;;;;8.60;71.40;95490.03;5071563;28;20434;-57
2023/01/13 01:00:31;;;;;;;1.77;0.27;;;;;;;8.24;72.71;95484.44;5071496;28;20426;-57
2023/01/13 01:03:01;;;;;;;0.60;0.60;;;;;;;8.03;73.75;95487.91;5071462;28;20441;-57
2023/01/13 01:05:29;;;;;;;0.60;0.60;;;;;;;7.67;75.13;95485.91;5071556;28;20843;-57
2023/01/13 01:07:57;;;;;;;0.97;0.50;;;;;;;7.17;78.00;95480.81;5071406;28;20529;-57
2023/01/13 01:10:26;;;;;;;0.40;0.30;;;;;;;6.88;79.87;95480.16;5070827;28;20445;-57
2023/01/13 01:12:54;;;;;;;0.90;0.90;;;;;;;6.69;83.32;95489.38;5071322;28;20532;-57
2023/01/13 01:15:42;;;;;;;0.60;0.60;;;;;;;6.61;87.64;95478.41;5071508;28;20437;-57
2023/01/13 01:18:11;;;;;;;0.60;0.60;;;;;;;6.84;86.18;95480.88;5071765;28;20426;-57
2023/01/13 01:20:40;;;;;;;0.97;0.47;;;;;;;6.62;89.63;95483.47;5071276;28;20815;-57
2023/01/13 01:23:08;;;;;;;0.40;0.37;;;;;;;6.95;86.67;95475.53;5071470;28;20421;-56
2023/01/13 01:25:36;;;;;;;0.90;0.53;;;;;;;7.10;85.05;95455.69;5071595;28;20471;-57
2023/01/13 01:28:05;;;;;;;0.80;0.80;;;;;;;6.71;86.25;95476.75;5071270;28;20765;-56
2023/01/13 01:30:33;;;;;;;0.40;0.30;;;;;;;7.16;85.11;95468.69;5071585;28;20494;-56
2023/01/13 01:33:04;;;;;;;0.30;0.20;;;;;;;7.35;83.43;95461.28;5071182;28;20439;-56
2023/01/13 01:35:33;;;;;;;0.40;0.30;;;;;;;7.13;80.67;95386.69;5071176;28;20433;-56
2023/01/13 01:38:01;;;;;;;0.40;0.40;;;;;;;7.44;79.15;95417.59;5071096;28;20920;-56
2023/01/13 01:40:30;;;;;;;0.30;0.20;;;;;;;7.99;77.92;95471.00;5071013;28;20463;-56
2023/01/13 01:45:40;;;;;;;0.40;0.30;;;;;;;7.71;77.08;95420.28;5037393;28;20436;-56
2023/01/13 01:48:12;;;;;;;0.73;0.73;;;;;;;8.14;77.21;95468.50;5070965;28;20433;-56
2023/01/13 01:50:42;;;;;;;0.40;0.30;;;;;;;7.74;77.69;95419.78;5070857;28;20462;-56
2023/01/13 01:53:13;;;;;;;0.30;0.20;;;;;;;7.56;79.17;95469.19;5071246;28;20440;-56
2023/01/13 01:55:42;;;;;;;0.40;0.30;;;;;;;7.44;79.19;95475.63;5071032;28;20447;-57
2023/01/13 01:58:15;;;;;;;0.40;0.40;;;;;;;7.43;80.62;95474.84;5070772;28;20432;-57
2023/01/13 02:00:44;;;;;;;0.40;0.30;;;;;;;7.61;79.98;95479.78;5070844;28;20529;-56
2023/01/13 02:03:13;;;;;;;0.40;0.20;;;;;;;7.65;78.70;95454.53;5070504;28;20431;-56
2023/01/13 02:05:42;;;;;;;1.23;1.23;;;;;;;7.90;78.73;95471.66;5070512;28;20451;-56
2023/01/13 02:08:13;;;;;;;0.40;0.30;;;;;;;7.95;77.98;95471.72;5070949;28;20448;-56
2023/01/13 02:10:45;;;;;;;0.70;0.40;;;;;;;7.90;78.17;95472.47;5070473;28;20444;-56
2023/01/13 02:13:14;;;;;;;0.60;0.60;;;;;;;7.97;77.96;95467.00;5070948;28;20435;-56
2023/01/13 02:15:51;;;;;;;0.50;0.50;;;;;;;8.02;78.04;95469.69;5074265;28;20429;-56
2023/01/13 02:18:31;;;;;;;1.07;1.07;;;;;;;7.96;78.63;95471.47;5074503;28;20785;-56
2023/01/13 02:21:29;;;;;;;0.53;0.53;;;;;;;7.73;79.07;95418.19;5074410;28;20445;-56
2023/01/13 02:27:53;;;;;;;0.70;0.70;;;;;;;7.99;78.61;95471.00;5073802;28;20487;-56
2023/01/13 02:33:53;;;;;;;2.87;2.00;;;;;;;7.11;81.61;95478.38;5031493;28;20476;-56
2023/01/13 02:36:31;;;;;;;0.40;0.37;;;;;;;6.98;81.36;95480.28;5067512;28;20800;-56
2023/01/13 02:39:08;;;;;;;0.30;0.20;;;;;;;6.78;81.54;95476.59;5073809;28;20432;-57
2023/01/13 02:44:36;;;;;;;0.67;0.50;;;;;;;6.59;81.16;95454.97;5073838;28;20425;-56
2023/01/13 02:47:10;;;;;;;0.67;0.67;;;;;;;6.79;81.62;95483.44;5073634;28;20505;-56
2023/01/13 02:49:42;;;;;;;0.60;0.47;;;;;;;7.01;81.57;95490.34;5071841;28;20483;-56
2023/01/13 02:52:14;;;;;;;0.80;0.80;;;;;;;7.20;80.10;95493.53;5073365;28;20523;-56
2023/01/13 02:54:46;;;;;;;0.60;0.50;;;;;;;6.87;80.29;95490.94;5072398;28;20436;-57
2023/01/13 02:57:18;;;;;;;0.93;0.93;;;;;;;6.90;80.61;95490.47;5074026;28;20517;-56
2023/01/13 02:59:47;;;;;;;0.43;0.40;;;;;;;6.97;80.48;95476.09;5073653;28;20433;-56
2023/01/13 03:02:21;;;;;;;0.50;0.50;;;;;;;6.97;80.15;95485.81;5073467;28;20463;-57
2023/01/13 03:04:53;;;;;;;13.40;2.20;;;;;;;6.78;79.95;95455.53;5073326;28;20447;-56
2023/01/13 03:07:52;;;;;;;3.50;0.40;;;;;;;6.92;80.11;95478.66;5073070;28;20555;-57
2023/01/13 03:10:34;;;;;;;0.40;0.33;;;;;;;6.60;80.50;95406.53;5073142;28;20454;-57
2023/01/13 03:13:14;;;;;;;0.73;0.73;;;;;;;6.55;81.45;95416.19;5073049;28;20461;-57
2023/01/13 03:15:54;;;;;;;0.40;0.30;;;;;;;6.81;81.94;95479.53;5072509;28;20913;-57
2023/01/13 03:18:34;;;;;;;0.70;0.70;;;;;;;6.76;82.26;95476.00;5072724;28;20447;-56
2023/01/13 03:21:09;;;;;;;0.70;0.70;;;;;;;6.85;81.65;95477.22;5072656;28;20475;-57
2023/01/13 03:23:47;;;;;;;1.17;1.17;;;;;;;6.73;81.92;95455.44;5073042;28;20425;-57
2023/01/13 03:26:22;;;;;;;2.60;0.90;;;;;;;7.04;81.14;95479.34;5072172;28;20429;-57
2023/01/13 03:28:58;;;;;;;0.60;0.60;;;;;;;7.03;81.02;95474.31;5072635;28;20442;-57
2023/01/13 03:31:31;;;;;;;0.93;0.80;;;;;;;7.32;80.25;95444.09;5072427;28;20515;-57
2023/01/13 03:34:07;;;;;;;0.83;0.83;;;;;;;6.90;78.95;95403.53;5072318;28;20523;-56
2023/01/13 03:36:39;;;;;;;1.10;1.10;;;;;;;7.63;77.45;95485.63;5072352;28;20435;-57
2023/01/13 03:39:12;;;;;;;0.40;0.40;;;;;;;7.74;77.45;95478.63;5072417;28;20472;-57
2023/01/13 03:41:47;;;;;;;0.40;0.30;;;;;;;7.87;77.05;95488.00;5072709;28;20432;-56
2023/01/13 03:44:21;;;;;;;0.40;0.40;;;;;;;7.84;76.08;95486.66;5072477;28;20439;-56
2023/01/13 03:46:59;;;;;;;0.47;0.40;;;;;;;7.52;77.23;95483.91;5072398;28;20552;-56
2023/01/13 03:49:34;;;;;;;3.13;0.90;;;;;;;7.39;77.16;95486.91;5072328;28;20538;-56
2023/01/13 03:52:07;;;;;;;0.40;0.30;;;;;;;7.23;77.83;95466.69;5072526;28;20520;-57
2023/01/13 03:54:43;;;;;;;0.63;0.60;;;;;;;7.44;77.44;95494.88;5072582;28;20426;-57
2023/01/13 03:57:15;;;;;;;0.37;0.33;;;;;;;7.51;77.19;95487.56;5072294;28;20428;-58
2023/01/13 03:59:48;;;;;;;0.40;0.30;;;;;;;7.24;77.05;95425.28;5072445;28;20808;-57
2023/01/13 04:02:24;;;;;;;1.23;0.57;;;;;;;7.71;76.43;95494.16;5072094;28;21011;-57
2023/01/13 04:04:58;;;;;;;0.40;0.30;;;;;;;7.47;76.22;95456.66;5072160;28;20438;-57
2023/01/13 04:07:37;;;;;;;0.40;0.30;;;;;;;7.34;76.31;95500.03;5071856;28;20805;-57
2023/01/13 04:10:09;;;;;;;0.40;0.37;;;;;;;7.73;75.84;95490.22;5072197;28;20421;-57
2023/01/13 04:13:04;;;;;;;0.30;0.20;;;;;;;7.51;75.93;95487.56;5072268;28;20496;-57
2023/01/13 04:15:36;;;;;;;0.40;0.30;;;;;;;7.69;75.83;95503.09;5071837;28;20441;-56
2023/01/13 04:18:14;;;;;;;0.50;0.47;;;;;;;7.56;75.55;95469.19;5071755;28;20445;-56
2023/01/13 04:20:45;;;;;;;0.37;0.23;;;;;;;8.18;74.36;95503.09;5072096;28;20424;-56
2023/01/13 04:23:13;;;;;;;0.60;0.53;;;;;;;7.97;74.33;95512.66;5071654;28;20855;-56
2023/01/13 04:25:43;;;;;;;0.40;0.30;;;;;;;8.06;74.95;95519.09;5071417;28;20445;-56
2023/01/13 04:28:12;;;;;;;0.47;0.33;;;;;;;8.23;73.78;95513.69;5071960;28;20475;-57
2023/01/13 04:30:41;;;;;;;0.30;0.20;;;;;;;7.86;74.86;95515.44;5071760;28;20485;-57
2023/01/13 04:33:10;;;;;;;0.30;0.20;;;;;;;7.73;74.31;95463.03;5071724;28;20432;-56
2023/01/13 04:35:39;;;;;;;0.57;0.57;;;;;;;7.78;75.39;95519.31;5071765;28;20474;-56
2023/01/13 04:38:11;;;;;;;2.00;0.30;;;;;;;7.07;76.44;95445.63;5071335;28;20785;-57
2023/01/13 04:40:40;;;;;;;0.80;0.80;;;;;;;7.36;76.57;95518.25;5071574;28;20435;-56
2023/01/13 04:43:08;;;;;;;0.37;0.27;;;;;;;7.86;75.62;95521.50;5071944;28;20436;-56
2023/01/13 04:45:37;;;;;;;0.50;0.50;;;;;;;7.16;76.94;95524.03;5072137;28;20444;-56
2023/01/13 04:48:06;;;;;;;0.57;0.47;;;;;;;7.26;77.11;95512.84;5071801;28;20560;-56
2023/01/13 04:50:34;;;;;;;0.33;0.27;;;;;;;7.26;76.99;95479.34;5071393;28;20472;-56
2023/01/13 04:53:02;;;;;;;0.50;0.50;;;;;;;6.96;77.52;95449.97;5071731;28;20465;-56
2023/01/13 04:55:32;;;;;;;0.40;0.30;;;;;;;6.91;77.58;95447.25;5071717;28;20428;-56
2023/01/13 04:58:04;;;;;;;0.73;0.73;;;;;;;7.84;76.30;95517.53;5071400;28;20472;-56
2023/01/13 05:00:33;;;;;;;1.37;1.07;;;;;;;7.48;75.37;95474.91;5071521;28;20507;-57
2023/01/13 05:03:02;;;;;;;0.43;0.43;;;;;;;7.61;75.31;95534.41;5071318;28;20436;-57
2023/01/13 05:05:30;;;;;;;0.30;0.30;;;;;;;7.72;75.28;95530.81;5071341;28;20470;-57
2023/01/13 05:07:59;;;;;;;0.40;0.40;;;;;;;7.57;74.57;95468.16;5071471;28;20921;-58
2023/01/13 05:10:28;;;;;;;0.40;0.40;;;;;;;7.65;74.57;95511.75;5071550;28;20439;-58
2023/01/13 05:18:32;;;;;;;0.60;0.60;;;;;;;7.08;75.75;95542.91;5071178;28;20499;-57
2023/01/13 05:21:01;;;;;;;0.80;0.50;;;;;;;6.94;76.90;95542.44;5071252;28;20456;-57
2023/01/13 05:26:15;;;;;;;0.80;0.70;;;;;;;7.07;76.17;95543.94;5071206;28;20816;-58
2023/01/13 05:28:44;;;;;;;0.70;0.70;;;;;;;6.67;76.23;95469.56;5071237;28;20514;-58
2023/01/13 05:31:13;;;;;;;0.50;0.50;;;;;;;6.48;77.11;95460.34;5071433;28;20439;-59
2023/01/13 05:33:42;;;;;;;2.57;0.57;;;;;;;6.80;77.35;95553.53;5070771;28;20531;-57
2023/01/13 05:36:10;;;;;;;0.70;0.70;;;;;;;6.67;78.75;95552.03;5070899;28;20429;-58
2023/01/13 05:38:38;;;;;;;1.07;0.70;;;;;;;7.01;78.20;95552.78;5070933;28;20432;-57
2023/01/13 05:43:55;;;;;;;0.77;0.77;;;;;;;7.15;78.14;95554.06;5071243;28;20467;-58
2023/01/13 05:46:23;;;;;;;2.03;2.03;;;;;;;6.78;79.66;95555.63;5070623;28;20440;-57
2023/01/13 05:48:51;;;;;;;0.83;0.83;;;;;;;7.01;78.05;95542.25;5071275;28;20973;-57
2023/01/13 05:51:24;;;;;;;1.03;1.03;;;;;;;7.14;78.21;95562.22;5074655;28;20510;-57
2023/01/13 05:53:53;;;;;;;1.10;1.00;;;;;;;7.12;77.82;95562.47;5074850;28;20866;-59
2023/01/13 05:56:24;;;;;;;0.50;0.50;;;;;;;7.60;77.35;95567.09;5074407;28;20437;-57
2023/01/13 05:58:54;;;;;;;0.43;0.43;;;;;;;7.88;75.54;95566.13;5074446;28;20426;-58
2023/01/13 06:01:22;;;;;;;0.93;0.70;;;;;;;7.72;75.96;95565.13;5074408;28;20427;-58
2023/01/13 06:03:50;;;;;;;0.30;0.20;;;;;;;8.01;75.51;95549.91;5074381;28;20512;-57
2023/01/13 06:06:19;;;;;;;0.40;0.40;;;;;;;8.09;73.87;95562.69;5073605;28;20472;-57
2023/01/13 06:08:47;;;;;;;0.60;0.60;;;;;;;7.93;73.79;95563.53;5073761;28;20504;-58
2023/01/13 06:11:15;;;;;;;1.20;0.93;;;;;;;7.50;74.96;95578.31;5073898;28;21000;-58
2023/01/13 06:13:44;;;;;;;0.70;0.67;;;;;;;7.88;74.23;95577.47;5073651;28;20457;-58
2023/01/13 06:16:14;;;;;;;0.40;0.33;;;;;;;8.11;73.57;95581.69;5074605;28;20440;-58
2023/01/13 06:18:42;;;;;;;1.20;1.20;;;;;;;7.80;74.83;95582.38;5074189;28;20436;-58
2023/01/13 06:21:10;;;;;;;1.27;1.23;;;;;;;7.57;77.00;95583.38;5074231;28;20921;-58
2023/01/13 06:23:38;;;;;;;0.80;0.80;;;;;;;7.47;77.56;95580.63;5074025;28;20497;-58
2023/01/13 06:26:12;;;;;;;1.33;1.30;;;;;;;7.09;78.71;95586.66;5074116;28;20516;-57
2023/01/13 06:28:40;;;;;;;5.10;1.30;;;;;;;7.04;80.53;95589.22;5073640;28;20472;-58
2023/01/13 06:31:10;;;;;;;2.53;1.37;;;;;;;6.93;81.49;95579.56;5073995;28;20511;-58
2023/01/13 06:33:44;;;;;;;2.53;2.43;;;;;;;7.57;80.47;95594.75;5074229;28;20429;-58
2023/01/13 06:36:17;;;;;;;2.30;2.20;;;;;;;8.06;77.25;95593.00;5073800;28;20437;-60
2023/01/13 06:38:49;;;;;;;3.00;2.47;;;;;;;8.43;74.83;95579.16;5073786;28;20441;-60
2023/01/13 06:43:13;;;;;;;0.60;0.60;;;;;;;8.27;74.12;95546.53;5073917;28;20486;-59
2023/01/13 06:44:08;;;;;;;1.23;1.20;;;;;;;8.34;73.52;95570.09;5073882;28;20444;-59
2023/01/13 06:46:36;;;;;;;0.40;0.30;;;;;;;8.94;72.83;95582.03;5073869;28;20504;-59
2023/01/13 06:49:06;;;;;;;0.63;0.60;;;;;;;9.72;69.75;95577.78;5073338;28;20992;-58
2023/01/13 06:51:35;;;;;;;5.20;0.83;;;;;;;9.76;69.19;95573.56;5073646;28;20434;-58
2023/01/13 06:54:03;;;;;;;4.83;0.80;;;;;;;9.75;68.39;95574.63;5073216;28;20426;-60
2023/01/13 06:56:32;;;;;;;3.20;0.70;;;;;;;10.50;66.11;95576.00;5073512;28;20512;-60
2023/01/13 06:59:00;;;;;;;1.43;0.40;;;;;;;10.75;64.33;95578.69;5073236;28;21016;-60
2023/01/13 07:01:28;;;;;;;1.10;1.10;;;;;;;11.37;63.69;95573.91;5072988;28;20519;-60
2023/01/13 07:03:57;;;;;;;13.67;1.57;;;;;;;11.78;61.10;95576.50;5073390;28;20431;-61
2023/01/13 07:06:31;;;;;;;0.60;0.60;;;;;;;12.53;59.87;95580.69;5073079;28;20436;-62
2023/01/13 07:09:00;;;;;;;1.07;1.07;;;;;;;12.89;58.85;95574.09;5073379;28;20477;-62
2023/01/13 07:11:28;;;;;;;0.83;0.70;;;;;;;13.29;56.43;95578.34;5073290;28;20496;-62
2023/01/13 07:16:43;;;;;;;0.40;0.30;;;;;;;14.08;55.61;95558.34;5073204;28;20446;-63
2023/01/13 07:19:12;;;;;;;1.20;0.93;;;;;;;14.11;54.46;95573.78;5073091;28;20427;-62
2023/01/13 07:21:42;;;;;;;0.70;0.70;;;;;;;14.09;53.73;95519.97;5073341;28;20495;-62
2023/01/13 07:24:11;;;;;;;1.43;1.33;;;;;;;13.94;52.86;95569.69;5072983;28;20547;-62
2023/01/13 07:26:41;;;;;;;0.60;0.37;;;;;;;14.17;52.48;95528.09;5072772;28;21000;-62
2023/01/13 07:29:09;;;;;;;0.80;0.60;;;;;;;14.89;50.95;95561.56;5072771;28;20471;-63
2023/01/13 07:31:40;;;;;;;1.20;1.10;;;;;;;15.55;49.16;95568.53;5073166;28;20504;-64
2023/01/13 07:34:08;;;;;;;0.87;0.70;;;;;;;15.52;51.85;95571.78;5072957;28;20449;-66
2023/01/13 07:36:38;;;;;;;0.77;0.77;;;;;;;15.69;52.09;95547.94;5072750;28;20415;-68
2023/01/13 07:39:08;;;;;;;1.03;0.93;;;;;;;15.71;51.60;95567.94;5072643;28;20885;-67
2023/01/13 07:44:24;;;;;;;2.23;2.13;;;;;;;14.69;53.61;95571.72;5072661;28;20430;-70
2023/01/13 07:46:53;;;;;;;2.23;2.10;;;;;;;15.05;52.85;95575.47;5072556;28;21092;-72
2023/01/13 07:49:24;;;;;;;11.70;4.97;;;;;;;15.64;51.73;95572.09;5072307;28;20572;-74
2023/01/13 07:51:52;;;;;;;3.33;3.00;;;;;;;16.06;51.49;95576.41;5073254;28;20457;-75
2023/01/13 07:54:22;;;;;;;1.40;0.93;;;;;;;16.61;50.16;95569.16;5072830;28;20432;-80
2023/01/13 07:57:07;;;;;;;1.60;1.50;;;;;;;14.98;52.40;95524.31;5072816;28;20429;-78
2023/01/13 07:59:35;;;;;;;1.73;1.63;;;;;;;16.29;51.04;95573.50;5072979;28;20525;-78
2023/01/13 08:02:04;;;;;;;0.50;0.50;;;;;;;17.01;48.72;95563.69;5072606;28;20429;-79
2023/01/13 08:04:33;;;;;;;1.70;1.60;;;;;;;17.42;48.48;95562.69;5073245;28;20483;-78
2023/01/13 08:07:02;;;;;;;2.10;1.50;;;;;;;15.65;49.37;95576.34;5072071;28;20524;-73
2023/01/13 08:09:32;;;;;;;2.00;1.10;;;;;;;16.27;49.96;95580.25;5071507;28;20469;-69
2023/01/13 08:14:42;;;;;;;1.20;1.20;;;;;;;15.13;52.76;95582.78;5071561;28;20457;-68
2023/01/13 08:17:11;;;;;;;2.90;2.70;;;;;;;14.75;53.53;95587.34;5074906;28;20878;-66
2023/01/13 08:19:39;;;;;;;1.10;1.00;;;;;;;15.86;52.25;95583.69;5072349;28;20445;-66
2023/01/13 08:22:07;;;;;;;1.00;0.97;;;;;;;15.65;51.45;95581.69;5071734;28;20422;-65
2023/01/13 08:24:37;;;;;;;1.60;1.50;;;;;;;16.64;50.57;95580.06;5071397;28;20822;-65
2023/01/13 08:27:05;;;;;;;0.60;0.60;;;;;;;17.09;48.46;95573.66;5071425;28;20677;-64
2023/01/13 08:29:34;;;;;;;3.73;0.80;;;;;;;17.35;48.08;95571.19;5071994;28;20466;-63
2023/01/13 08:32:02;;;;;;;1.87;1.77;;;;;;;17.06;47.97;95576.16;5071552;28;20517;-62
2023/01/13 08:34:30;;;;;;;2.33;2.13;;;;;;;16.05;49.85;95570.25;5071301;28;20461;-62
2023/01/13 08:36:59;;;;;;;1.30;1.10;;;;;;;16.43;48.62;95578.84;5072061;28;20513;-58
2023/01/13 08:39:27;;;;;;;1.67;1.57;;;;;;;16.54;47.51;95576.78;5071210;28;20449;-59
2023/01/13 08:41:57;;;;;;;0.83;0.83;;;;;;;16.36;46.86;95492.88;5071789;28;20513;-64
2023/01/13 08:44:27;;;;;;;0.57;0.57;;;;;;;17.81;45.51;95570.81;5071441;28;20432;-59
2023/01/13 08:46:56;;;;;;;0.50;0.50;;;;;;;16.79;46.94;95563.66;5071886;28;20454;-58
2023/01/13 08:49:25;;;;;;;1.63;1.60;;;;;;;17.77;45.80;95572.56;5070944;28;20493;-59
2023/01/13 08:51:54;;;;;;;2.40;1.40;;;;;;;17.98;44.79;95548.69;5071209;28;20473;-59
2023/01/13 08:54:22;;;;;;;2.10;2.00;;;;;;;17.65;44.69;95508.00;5071444;28;20549;-59
2023/01/13 08:56:50;;;;;;;1.00;0.90;;;;;;;18.33;44.14;95555.72;5071403;28;20461;-59
2023/01/13 08:59:21;;;;;;;3.10;2.90;;;;;;;19.11;44.01;95548.56;5071332;28;20448;-59
2023/01/13 09:01:49;;;;;;;1.27;1.17;;;;;;;19.81;43.18;95540.88;5071342;28;20921;-59
2023/01/13 09:04:22;;;;;;;1.47;0.67;;;;;;;21.70;40.40;95540.41;5071053;28;20525;-59
2023/01/13 09:06:51;;;;;;;2.50;1.80;;;;;;;21.20;40.45;95543.25;5071490;28;20508;-57
2023/01/13 09:09:20;;;;;;;1.63;1.33;;;;;;;20.46;39.92;95493.91;5070991;28;20442;-57
2023/01/13 09:14:39;;;;;;;0.80;0.70;;;;;;;22.28;38.20;95528.47;5071253;28;20502;-56
2023/01/13 09:17:07;;;;;;;2.00;1.67;;;;;;;20.85;38.96;95517.69;5071117;28;20430;-57
2023/01/13 09:19:36;;;;;;;0.90;0.80;;;;;;;22.01;38.99;95519.09;5071135;28;20438;-57
2023/01/13 09:22:05;;;;;;;0.63;0.60;;;;;;;22.14;37.16;95501.00;5071068;28;20425;-57
2023/01/13 09:24:33;;;;;;;2.93;0.57;;;;;;;22.27;36.31;95512.59;5075135;28;20834;-58
2023/01/13 09:27:01;;;;;;;1.70;1.00;;;;;;;21.94;37.65;95507.28;5074771;28;20925;-57
2023/01/13 09:29:30;;;;;;;1.87;1.77;;;;;;;21.75;37.89;95499.72;5074714;28;20437;-57
2023/01/13 09:32:00;;;;;;;0.60;0.60;;;;;;;22.21;36.34;95489.66;5074470;28;20430;-57
2023/01/13 09:37:14;;;;;;;0.70;0.70;;;;;;;23.55;34.65;95483.56;5074740;28;20434;-58
2023/01/13 09:39:42;;;;;;;0.63;0.50;;;;;;;23.20;35.09;95477.94;5074678;28;20918;-58
2023/01/13 09:45:07;;;;;;;0.50;0.50;;;;;;;23.21;34.26;95468.72;5074673;28;20508;-58
2023/01/13 09:47:42;;;;;;;1.33;0.97;;;;;;;22.33;35.18;95417.53;5074247;28;20520;-58
2023/01/13 09:50:22;;;;;;;1.03;1.03;;;;;;;23.26;34.85;95462.25;5074356;28;20484;-58
2023/01/13 09:52:50;;;;;;;0.93;0.83;;;;;;;22.32;35.56;95447.56;5074721;28;20429;-58
2023/01/13 09:55:25;;;;;;;0.73;0.70;;;;;;;22.88;35.56;95461.97;5074568;28;20522;-58
2023/01/13 09:57:53;;;;;;;1.03;1.03;;;;;;;22.21;34.56;95460.75;5074118;28;20490;-58
2023/01/13 10:00:24;;;;;;;1.40;1.20;;;;;;;22.05;35.11;95416.66;5073996;28;20442;-58
2023/01/13 10:03:09;;;;;;;1.87;1.03;;;;;;;22.42;35.19;95445.19;5073936;28;20512;-58
2023/01/13 10:05:41;;;;;;;1.27;1.07;;;;;;;21.84;35.01;95438.34;5074132;28;20818;-58
2023/01/13 10:08:13;;;;;;;6.00;0.80;;;;;;;22.40;34.49;95439.34;5074059;28;20461;-58
2023/01/13 10:10:46;;;;;;;1.27;1.27;;;;;;;22.34;35.36;95424.47;5074181;28;20613;-58
2023/01/13 10:13:20;;;;;;;3.80;1.23;;;;;;;22.41;34.77;95391.50;5074800;28;20831;-58
2023/01/13 10:15:59;;;;;;;1.40;1.30;;;;;;;21.87;35.49;95436.91;5074411;28;20460;-58
2023/01/13 10:18:43;;;;;;;0.40;0.30;;;;;;;21.80;36.44;95432.06;5073885;28;20436;-58
2023/01/13 10:21:25;;;;;;;0.73;0.73;;;;;;;22.28;35.21;95430.47;5074066;28;20447;-58
2023/01/13 10:24:02;;;;;;;5.13;1.43;;;;;;;21.51;35.29;95392.56;5073939;28;20418;-57
2023/01/13 10:26:47;;;;;;;1.03;1.03;;;;;;;22.22;35.57;95375.91;5074013;28;20429;-58
2023/01/13 10:29:24;;;;;;;0.80;0.57;;;;;;;23.05;34.29;95416.50;5074583;28;20512;-58
2023/01/13 10:31:53;;;;;;;0.80;0.80;;;;;;;21.42;34.64;95383.81;5074258;28;21012;-58
2023/01/13 10:34:24;;;;;;;1.23;1.13;;;;;;;22.12;34.53;95411.47;5073329;28;20870;-58
2023/01/13 10:37:05;;;;;;;1.00;1.00;;;;;;;22.60;34.50;95407.88;5074076;28;20469;-61
2023/01/13 10:39:41;;;;;;;3.03;0.70;;;;;;;22.88;34.18;95395.19;5074488;28;20505;-61
2023/01/13 10:42:14;;;;;;;1.97;1.70;;;;;;;21.77;34.50;95303.22;5074134;28;20438;-61
2023/01/13 10:44:51;;;;;;;0.83;0.83;;;;;;;22.49;33.99;95396.75;5074162;28;20452;-61
2023/01/13 10:47:27;;;;;;;3.03;0.67;;;;;;;22.95;33.33;95392.66;5074195;28;20501;-60
2023/01/13 10:50:24;;;;;;;0.70;0.57;;;;;;;21.81;34.66;95393.13;5073753;28;20487;-60
2023/01/13 10:52:59;;;;;;;1.63;1.53;;;;;;;21.24;35.76;95389.72;5073810;28;20430;-60
2023/01/13 10:55:30;;;;;;;2.00;0.70;;;;;;;20.06;36.68;95377.78;5073922;28;20503;-61
2023/01/13 10:58:12;;;;;;;1.17;0.70;;;;;;;20.71;36.77;95382.50;5073443;28;20422;-62
2023/01/13 11:00:41;;;;;;;0.57;0.30;;;;;;;21.98;36.01;95373.25;5073604;28;20457;-62
2023/01/13 11:03:16;;;;;;;1.27;0.90;;;;;;;21.09;36.05;95361.53;5073352;28;20449;-62
2023/01/13 11:05:54;;;;;;;10.03;1.50;;;;;;;20.99;36.08;95382.69;5073759;28;20445;-62
2023/01/13 11:08:24;;;;;;;0.93;0.60;;;;;;;21.09;35.58;95364.22;5073257;28;20426;-63
2023/01/13 11:10:56;;;;;;;2.60;1.37;;;;;;;19.91;36.80;95381.81;5073326;28;20472;-62
2023/01/13 11:13:32;;;;;;;0.90;0.90;;;;;;;21.84;35.40;95375.47;5073742;28;20430;-62
2023/01/13 11:16:05;;;;;;;0.83;0.77;;;;;;;22.28;33.77;95339.44;5073007;28;20918;-63
2023/01/13 11:18:50;;;;;;;1.17;1.07;;;;;;;21.42;35.41;95354.16;5073240;28;20433;-62
2023/01/13 11:21:24;;;;;;;7.80;1.57;;;;;;;21.69;35.23;95365.38;5073061;28;20983;-61
2023/01/13 11:24:05;;;;;;;0.60;0.60;;;;;;;21.29;35.66;95363.34;5073589;28;20496;-61
2023/01/13 11:26:43;;;;;;;1.77;1.43;;;;;;;22.45;35.47;95352.66;5072931;28;20429;-61
2023/01/13 11:29:17;;;;;;;0.40;0.40;;;;;;;23.83;32.19;95350.84;5073025;28;20930;-61
2023/01/13 11:31:51;;;;;;;0.80;0.70;;;;;;;24.16;32.52;95356.63;5072568;28;20545;-61
2023/01/13 11:34:28;;;;;;;0.50;0.50;;;;;;;24.29;31.88;95343.75;5072915;28;20432;-59
2023/01/13 11:37:00;;;;;;;1.07;0.70;;;;;;;23.88;31.94;95340.53;5072766;28;20475;-56
2023/01/13 11:39:41;;;;;;;0.43;0.30;;;;;;;24.61;31.20;95345.19;5072975;28;20930;-59
2023/01/13 11:42:23;;;;;;;1.27;0.40;;;;;;;24.30;30.56;95264.06;5072798;28;20546;-59
2023/01/13 11:45:01;;;;;;;0.40;0.30;;;;;;;24.35;30.93;95334.22;5072548;28;20914;-59
2023/01/13 11:47:31;;;;;;;0.63;0.63;;;;;;;25.43;30.80;95320.34;5072256;28;20457;-60
2023/01/13 11:50:00;;;;;;;0.37;0.30;;;;;;;26.29;30.23;95316.63;5072446;28;21013;-59
2023/01/13 11:52:47;;;;;;;0.60;0.43;;;;;;;24.37;30.40;95331.91;5072253;28;20568;-58
2023/01/13 11:55:31;;;;;;;0.40;0.33;;;;;;;24.05;30.18;95328.53;5072247;28;20529;-59
2023/01/13 11:58:26;;;;;;;0.30;0.30;;;;;;;22.95;31.01;95329.72;5072540;28;20433;-59
2023/01/13 12:01:09;;;;;;;1.17;0.77;;;;;;;21.94;31.82;95286.78;5072380;28;20469;-59
2023/01/13 12:03:42;;;;;;;0.40;0.30;;;;;;;21.62;31.86;95328.19;5072469;28;20802;-60
2023/01/13 12:06:27;;;;;;;0.40;0.40;;;;;;;21.10;33.29;95290.31;5072140;28;20424;-59
2023/01/13 12:09:25;;;;;;;0.90;0.80;;;;;;;21.04;32.66;95328.56;5072262;28;20548;-59
2023/01/13 12:12:26;;;;;;;2.20;0.53;;;;;;;21.21;33.55;95314.91;5070676;28;20489;-60
2023/01/13 12:15:28;;;;;;;0.50;0.43;;;;;;;19.72;35.12;95337.63;5071893;28;20808;-61
2023/01/13 12:18:18;;;;;;;0.87;0.77;;;;;;;19.60;36.03;95317.63;5072083;28;20451;-60
2023/01/13 12:21:00;;;;;;;0.40;0.20;;;;;;;20.36;35.84;95312.00;5071984;28;20503;-61
2023/01/13 12:23:34;;;;;;;0.60;0.60;;;;;;;20.57;36.34;95320.03;5071681;28;20490;-62
2023/01/13 12:26:10;;;;;;;0.40;0.20;;;;;;;20.70;35.21;95316.25;5071176;28;20474;-63
2023/01/13 12:28:45;;;;;;;4.53;0.40;;;;;;;20.54;34.09;95288.41;5071749;28;20456;-61
2023/01/13 12:31:15;;;;;;;0.40;0.30;;;;;;;20.16;34.20;95323.56;5071455;28;20431;-60
2023/01/13 12:33:55;;;;;;;0.40;0.30;;;;;;;18.76;36.41;95311.50;5073540;28;20425;-59
2023/01/13 12:36:31;;;;;;;1.10;1.00;;;;;;;19.26;36.53;95312.41;5072215;28;20425;-60
2023/01/13 12:39:09;;;;;;;0.40;0.20;;;;;;;18.94;36.42;95327.22;5071289;28;20429;-61
2023/01/13 12:44:26;;;;;;;0.50;0.43;;;;;;;19.07;35.09;95332.72;5070779;28;20445;-64
2023/01/13 12:46:55;;;;;;;0.40;0.30;;;;;;;18.54;36.21;95330.50;5071002;28;20853;-60
2023/01/13 12:49:27;;;;;;;0.40;0.30;;;;;;;18.88;36.22;95312.41;5070217;28;20469;-61